sensor_id;sensor_type;location;lat;lon;timestamp;P1;durP1;ratioP1;P2;durP2;ratioP2
80332;SDS011;69652;51.864;-2.246;2023-10-31T00:00:32;6.10;;;1.55;;
80332;SDS011;69652;51.864;-2.246;2023-10-31T00:02:57;7.03;;;2.22;;
80332;SDS011;69652;51.864;-2.246;2023-10-31T00:05:22;6.82;;;1.88;;
80332;SDS011;69652;51.864;-2.246;2023-10-31T00:07:48;4.55;;;1.40;;
80332;SDS011;69652;51.864;-2.246;2023-10-31T00:10:13;6.45;;;1.95;;
80332;SDS011;69652;51.864;-2.246;2023-10-31T00:12:39;7.43;;;3.05;;
80332;SDS011;69652;51.864;-2.246;2023-10-31T00:15:05;10.02;;;3.67;;
80332;SDS011;69652;51.864;-2.246;2023-10-31T00:17:30;6.47;;;2.90;;
80332;SDS011;69652;51.864;-2.246;2023-10-31T00:19:56;4.60;;;2.15;;
80332;SDS011;69652;51.864;-2.246;2023-10-31T00:22:21;6.38;;;2.00;;
80332;SDS011;69652;51.864;-2.246;2023-10-31T00:24:47;4.65;;;1.60;;
80332;SDS011;69652;51.864;-2.246;2023-10-31T00:27:13;7.07;;;2.53;;
80332;SDS011;69652;51.864;-2.246;2023-10-31T00:29:39;8.35;;;1.92;;
80332;SDS011;69652;51.864;-2.246;2023-10-31T00:32:05;2.80;;;1.33;;
80332;SDS011;69652;51.864;-2.246;2023-10-31T00:34:30;3.08;;;1.10;;
80332;SDS011;69652;51.864;-2.246;2023-10-31T00:36:56;4.90;;;1.35;;
80332;SDS011;69652;51.864;-2.246;2023-10-31T00:39:23;4.43;;;1.48;;
80332;SDS011;69652;51.864;-2.246;2023-10-31T00:41:48;6.47;;;1.90;;
80332;SDS011;69652;51.864;-2.246;2023-10-31T00:44:13;8.55;;;1.85;;
80332;SDS011;69652;51.864;-2.246;2023-10-31T00:46:39;7.82;;;1.80;;
80332;SDS011;69652;51.864;-2.246;2023-10-31T00:49:05;4.38;;;1.35;;
80332;SDS011;69652;51.864;-2.246;2023-10-31T00:51:30;4.38;;;1.30;;
80332;SDS011;69652;51.864;-2.246;2023-10-31T00:53:56;6.43;;;1.33;;
80332;SDS011;69652;51.864;-2.246;2023-10-31T00:56:21;2.63;;;1.20;;
80332;SDS011;69652;51.864;-2.246;2023-10-31T00:58:47;5.93;;;1.48;;
80332;SDS011;69652;51.864;-2.246;2023-10-31T01:01:12;4.80;;;1.23;;
80332;SDS011;69652;51.864;-2.246;2023-10-31T01:03:38;7.18;;;1.83;;
80332;SDS011;69652;51.864;-2.246;2023-10-31T01:06:04;6.38;;;1.60;;
80332;SDS011;69652;51.864;-2.246;2023-10-31T01:08:30;3.45;;;1.30;;
80332;SDS011;69652;51.864;-2.246;2023-10-31T01:10:56;6.13;;;1.30;;
80332;SDS011;69652;51.864;-2.246;2023-10-31T01:13:21;4.70;;;1.27;;
80332;SDS011;69652;51.864;-2.246;2023-10-31T01:15:47;3.10;;;1.15;;
80332;SDS011;69652;51.864;-2.246;2023-10-31T01:18:12;4.18;;;1.23;;
80332;SDS011;69652;51.864;-2.246;2023-10-31T01:20:38;3.42;;;1.40;;
80332;SDS011;69652;51.864;-2.246;2023-10-31T01:23:04;4.20;;;1.10;;
80332;SDS011;69652;51.864;-2.246;2023-10-31T01:25:29;3.72;;;1.75;;
80332;SDS011;69652;51.864;-2.246;2023-10-31T01:27:55;5.20;;;1.45;;
80332;SDS011;69652;51.864;-2.246;2023-10-31T01:30:20;2.88;;;1.17;;
80332;SDS011;69652;51.864;-2.246;2023-10-31T01:32:45;3.65;;;1.42;;
80332;SDS011;69652;51.864;-2.246;2023-10-31T01:35:11;2.92;;;1.30;;
80332;SDS011;69652;51.864;-2.246;2023-10-31T01:37:36;5.80;;;1.10;;
80332;SDS011;69652;51.864;-2.246;2023-10-31T01:40:02;4.53;;;1.30;;
80332;SDS011;69652;51.864;-2.246;2023-10-31T01:42:29;5.10;;;1.40;;
80332;SDS011;69652;51.864;-2.246;2023-10-31T01:44:55;2.53;;;1.27;;
80332;SDS011;69652;51.864;-2.246;2023-10-31T01:47:20;3.65;;;1.15;;
80332;SDS011;69652;51.864;-2.246;2023-10-31T01:49:47;3.40;;;1.08;;
80332;SDS011;69652;51.864;-2.246;2023-10-31T01:52:13;2.42;;;0.90;;
80332;SDS011;69652;51.864;-2.246;2023-10-31T01:54:38;4.07;;;1.50;;
80332;SDS011;69652;51.864;-2.246;2023-10-31T01:57:04;4.22;;;1.25;;
80332;SDS011;69652;51.864;-2.246;2023-10-31T01:59:30;3.65;;;1.20;;
80332;SDS011;69652;51.864;-2.246;2023-10-31T02:05:17;2.65;;;1.10;;
80332;SDS011;69652;51.864;-2.246;2023-10-31T02:07:44;5.28;;;1.27;;
80332;SDS011;69652;51.864;-2.246;2023-10-31T02:10:10;10.50;;;2.10;;
80332;SDS011;69652;51.864;-2.246;2023-10-31T02:12:36;3.63;;;1.00;;
80332;SDS011;69652;51.864;-2.246;2023-10-31T02:15:02;5.32;;;1.27;;
80332;SDS011;69652;51.864;-2.246;2023-10-31T02:17:29;5.57;;;1.83;;
80332;SDS011;69652;51.864;-2.246;2023-10-31T02:19:55;5.20;;;1.58;;
80332;SDS011;69652;51.864;-2.246;2023-10-31T02:22:20;4.30;;;1.63;;
80332;SDS011;69652;51.864;-2.246;2023-10-31T02:24:47;5.93;;;1.40;;
80332;SDS011;69652;51.864;-2.246;2023-10-31T02:27:12;6.93;;;1.60;;
80332;SDS011;69652;51.864;-2.246;2023-10-31T02:29:39;7.20;;;1.35;;
80332;SDS011;69652;51.864;-2.246;2023-10-31T02:32:04;6.13;;;1.50;;
80332;SDS011;69652;51.864;-2.246;2023-10-31T02:34:30;3.95;;;1.60;;
80332;SDS011;69652;51.864;-2.246;2023-10-31T02:36:55;5.43;;;1.50;;
80332;SDS011;69652;51.864;-2.246;2023-10-31T02:39:21;6.07;;;1.60;;
80332;SDS011;69652;51.864;-2.246;2023-10-31T02:41:46;2.95;;;1.27;;
80332;SDS011;69652;51.864;-2.246;2023-10-31T02:44:14;6.50;;;1.55;;
80332;SDS011;69652;51.864;-2.246;2023-10-31T02:46:40;4.70;;;1.30;;
80332;SDS011;69652;51.864;-2.246;2023-10-31T02:49:05;3.30;;;1.30;;
80332;SDS011;69652;51.864;-2.246;2023-10-31T02:51:30;9.02;;;1.63;;
80332;SDS011;69652;51.864;-2.246;2023-10-31T02:53:56;4.07;;;1.20;;
80332;SDS011;69652;51.864;-2.246;2023-10-31T02:56:22;6.53;;;1.70;;
80332;SDS011;69652;51.864;-2.246;2023-10-31T02:58:48;4.07;;;1.20;;
80332;SDS011;69652;51.864;-2.246;2023-10-31T03:01:14;3.08;;;1.10;;
80332;SDS011;69652;51.864;-2.246;2023-10-31T03:03:39;4.53;;;1.50;;
80332;SDS011;69652;51.864;-2.246;2023-10-31T03:06:05;2.33;;;0.90;;
80332;SDS011;69652;51.864;-2.246;2023-10-31T03:08:30;6.45;;;1.20;;
80332;SDS011;69652;51.864;-2.246;2023-10-31T03:10:56;3.85;;;1.50;;
80332;SDS011;69652;51.864;-2.246;2023-10-31T03:13:21;5.65;;;1.40;;
80332;SDS011;69652;51.864;-2.246;2023-10-31T03:15:48;6.75;;;2.00;;
80332;SDS011;69652;51.864;-2.246;2023-10-31T03:18:14;5.18;;;1.35;;
80332;SDS011;69652;51.864;-2.246;2023-10-31T03:20:39;4.72;;;1.23;;
80332;SDS011;69652;51.864;-2.246;2023-10-31T03:23:05;5.78;;;1.63;;
80332;SDS011;69652;51.864;-2.246;2023-10-31T03:25:30;5.88;;;1.45;;
80332;SDS011;69652;51.864;-2.246;2023-10-31T03:27:56;3.58;;;1.38;;
80332;SDS011;69652;51.864;-2.246;2023-10-31T03:30:22;5.63;;;2.30;;
80332;SDS011;69652;51.864;-2.246;2023-10-31T03:32:47;8.35;;;1.60;;
80332;SDS011;69652;51.864;-2.246;2023-10-31T03:35:13;6.35;;;2.10;;
80332;SDS011;69652;51.864;-2.246;2023-10-31T03:37:38;7.88;;;1.90;;
80332;SDS011;69652;51.864;-2.246;2023-10-31T03:40:07;7.18;;;2.28;;
80332;SDS011;69652;51.864;-2.246;2023-10-31T03:42:33;5.22;;;1.70;;
80332;SDS011;69652;51.864;-2.246;2023-10-31T03:44:59;7.65;;;2.00;;
80332;SDS011;69652;51.864;-2.246;2023-10-31T03:47:24;5.88;;;1.98;;
80332;SDS011;69652;51.864;-2.246;2023-10-31T03:49:49;7.43;;;1.70;;
80332;SDS011;69652;51.864;-2.246;2023-10-31T03:52:15;5.45;;;2.05;;
80332;SDS011;69652;51.864;-2.246;2023-10-31T03:54:40;7.25;;;2.47;;
80332;SDS011;69652;51.864;-2.246;2023-10-31T03:57:06;4.65;;;1.33;;
80332;SDS011;69652;51.864;-2.246;2023-10-31T03:59:31;5.07;;;2.03;;
80332;SDS011;69652;51.864;-2.246;2023-10-31T04:01:57;7.03;;;1.92;;
80332;SDS011;69652;51.864;-2.246;2023-10-31T04:04:22;5.20;;;1.88;;
80332;SDS011;69652;51.864;-2.246;2023-10-31T04:06:47;7.03;;;2.08;;
80332;SDS011;69652;51.864;-2.246;2023-10-31T04:09:13;7.82;;;1.83;;
80332;SDS011;69652;51.864;-2.246;2023-10-31T04:11:39;4.82;;;1.80;;
80332;SDS011;69652;51.864;-2.246;2023-10-31T04:14:04;7.25;;;2.13;;
80332;SDS011;69652;51.864;-2.246;2023-10-31T04:16:31;3.92;;;1.60;;
80332;SDS011;69652;51.864;-2.246;2023-10-31T04:18:56;6.03;;;2.15;;
80332;SDS011;69652;51.864;-2.246;2023-10-31T04:21:22;6.43;;;1.67;;
80332;SDS011;69652;51.864;-2.246;2023-10-31T04:23:47;6.93;;;1.60;;
80332;SDS011;69652;51.864;-2.246;2023-10-31T04:26:12;5.07;;;1.52;;
80332;SDS011;69652;51.864;-2.246;2023-10-31T04:28:38;7.18;;;2.45;;
80332;SDS011;69652;51.864;-2.246;2023-10-31T04:31:04;8.05;;;2.05;;
80332;SDS011;69652;51.864;-2.246;2023-10-31T04:33:29;5.43;;;2.00;;
80332;SDS011;69652;51.864;-2.246;2023-10-31T04:35:55;8.18;;;2.10;;
80332;SDS011;69652;51.864;-2.246;2023-10-31T04:38:21;6.13;;;1.88;;
80332;SDS011;69652;51.864;-2.246;2023-10-31T04:40:46;9.52;;;2.47;;
80332;SDS011;69652;51.864;-2.246;2023-10-31T04:43:11;5.10;;;1.80;;
80332;SDS011;69652;51.864;-2.246;2023-10-31T04:45:37;6.65;;;2.60;;
80332;SDS011;69652;51.864;-2.246;2023-10-31T04:48:02;7.78;;;2.67;;
80332;SDS011;69652;51.864;-2.246;2023-10-31T04:50:28;7.30;;;2.40;;
80332;SDS011;69652;51.864;-2.246;2023-10-31T04:52:53;7.45;;;2.78;;
80332;SDS011;69652;51.864;-2.246;2023-10-31T04:55:19;5.25;;;2.53;;
80332;SDS011;69652;51.864;-2.246;2023-10-31T04:57:44;9.35;;;2.85;;
80332;SDS011;69652;51.864;-2.246;2023-10-31T05:00:10;6.68;;;2.75;;
80332;SDS011;69652;51.864;-2.246;2023-10-31T05:02:36;10.45;;;2.53;;
80332;SDS011;69652;51.864;-2.246;2023-10-31T05:05:01;9.40;;;2.80;;
80332;SDS011;69652;51.864;-2.246;2023-10-31T05:07:27;6.25;;;2.22;;
80332;SDS011;69652;51.864;-2.246;2023-10-31T05:09:52;5.45;;;2.35;;
80332;SDS011;69652;51.864;-2.246;2023-10-31T05:12:18;4.38;;;1.85;;
80332;SDS011;69652;51.864;-2.246;2023-10-31T05:14:43;3.90;;;1.55;;
80332;SDS011;69652;51.864;-2.246;2023-10-31T05:17:08;6.57;;;2.30;;
80332;SDS011;69652;51.864;-2.246;2023-10-31T05:19:34;8.63;;;2.40;;
80332;SDS011;69652;51.864;-2.246;2023-10-31T05:21:59;5.70;;;2.35;;
80332;SDS011;69652;51.864;-2.246;2023-10-31T05:24:25;3.25;;;1.50;;
80332;SDS011;69652;51.864;-2.246;2023-10-31T05:26:51;5.43;;;1.70;;
80332;SDS011;69652;51.864;-2.246;2023-10-31T05:29:17;5.20;;;2.30;;
80332;SDS011;69652;51.864;-2.246;2023-10-31T05:31:42;7.97;;;2.90;;
80332;SDS011;69652;51.864;-2.246;2023-10-31T05:34:08;5.40;;;2.30;;
80332;SDS011;69652;51.864;-2.246;2023-10-31T05:36:34;7.65;;;2.92;;
80332;SDS011;69652;51.864;-2.246;2023-10-31T05:38:59;8.85;;;3.33;;
80332;SDS011;69652;51.864;-2.246;2023-10-31T05:41:25;7.80;;;2.70;;
80332;SDS011;69652;51.864;-2.246;2023-10-31T05:43:50;5.65;;;2.40;;
80332;SDS011;69652;51.864;-2.246;2023-10-31T05:46:16;8.32;;;2.80;;
80332;SDS011;69652;51.864;-2.246;2023-10-31T05:48:43;4.53;;;2.40;;
80332;SDS011;69652;51.864;-2.246;2023-10-31T05:51:13;7.70;;;3.20;;
80332;SDS011;69652;51.864;-2.246;2023-10-31T05:53:39;10.52;;;3.20;;
80332;SDS011;69652;51.864;-2.246;2023-10-31T05:56:06;7.60;;;3.05;;
80332;SDS011;69652;51.864;-2.246;2023-10-31T05:58:32;5.72;;;1.80;;
80332;SDS011;69652;51.864;-2.246;2023-10-31T06:00:58;10.27;;;2.90;;
80332;SDS011;69652;51.864;-2.246;2023-10-31T06:03:23;8.13;;;3.05;;
80332;SDS011;69652;51.864;-2.246;2023-10-31T06:05:49;5.85;;;2.50;;
80332;SDS011;69652;51.864;-2.246;2023-10-31T06:08:14;4.70;;;2.15;;
80332;SDS011;69652;51.864;-2.246;2023-10-31T06:10:40;5.38;;;2.13;;
80332;SDS011;69652;51.864;-2.246;2023-10-31T06:13:05;4.90;;;2.40;;
80332;SDS011;69652;51.864;-2.246;2023-10-31T06:15:31;5.95;;;2.20;;
80332;SDS011;69652;51.864;-2.246;2023-10-31T06:17:56;3.60;;;1.75;;
80332;SDS011;69652;51.864;-2.246;2023-10-31T06:20:21;6.07;;;2.75;;
80332;SDS011;69652;51.864;-2.246;2023-10-31T06:22:47;4.47;;;2.22;;
80332;SDS011;69652;51.864;-2.246;2023-10-31T06:25:12;4.05;;;2.10;;
80332;SDS011;69652;51.864;-2.246;2023-10-31T06:27:38;3.55;;;1.80;;
80332;SDS011;69652;51.864;-2.246;2023-10-31T06:30:03;4.18;;;1.65;;
80332;SDS011;69652;51.864;-2.246;2023-10-31T06:32:29;4.30;;;1.75;;
80332;SDS011;69652;51.864;-2.246;2023-10-31T06:34:55;5.05;;;2.20;;
80332;SDS011;69652;51.864;-2.246;2023-10-31T06:37:20;5.85;;;2.10;;
80332;SDS011;69652;51.864;-2.246;2023-10-31T06:39:45;8.50;;;3.28;;
80332;SDS011;69652;51.864;-2.246;2023-10-31T06:42:11;7.40;;;2.65;;
80332;SDS011;69652;51.864;-2.246;2023-10-31T06:44:36;8.38;;;2.67;;
80332;SDS011;69652;51.864;-2.246;2023-10-31T06:47:02;4.70;;;2.05;;
80332;SDS011;69652;51.864;-2.246;2023-10-31T06:49:27;6.22;;;2.28;;
80332;SDS011;69652;51.864;-2.246;2023-10-31T06:51:53;5.07;;;2.10;;
80332;SDS011;69652;51.864;-2.246;2023-10-31T06:54:18;5.32;;;2.17;;
80332;SDS011;69652;51.864;-2.246;2023-10-31T06:56:44;5.15;;;1.90;;
80332;SDS011;69652;51.864;-2.246;2023-10-31T06:59:10;6.40;;;2.28;;
80332;SDS011;69652;51.864;-2.246;2023-10-31T07:01:35;4.90;;;2.28;;
80332;SDS011;69652;51.864;-2.246;2023-10-31T07:04:01;5.78;;;2.63;;
80332;SDS011;69652;51.864;-2.246;2023-10-31T07:06:26;6.65;;;3.03;;
80332;SDS011;69652;51.864;-2.246;2023-10-31T07:08:51;5.88;;;2.60;;
80332;SDS011;69652;51.864;-2.246;2023-10-31T07:11:17;6.65;;;2.53;;
80332;SDS011;69652;51.864;-2.246;2023-10-31T07:13:42;5.70;;;2.15;;
80332;SDS011;69652;51.864;-2.246;2023-10-31T07:16:09;6.43;;;2.53;;
80332;SDS011;69652;51.864;-2.246;2023-10-31T07:18:34;6.93;;;3.05;;
80332;SDS011;69652;51.864;-2.246;2023-10-31T07:21:00;8.57;;;2.63;;
80332;SDS011;69652;51.864;-2.246;2023-10-31T07:23:25;7.50;;;2.70;;
80332;SDS011;69652;51.864;-2.246;2023-10-31T07:25:51;6.40;;;2.83;;
80332;SDS011;69652;51.864;-2.246;2023-10-31T07:28:16;5.53;;;2.58;;
80332;SDS011;69652;51.864;-2.246;2023-10-31T07:30:42;4.78;;;2.65;;
80332;SDS011;69652;51.864;-2.246;2023-10-31T07:33:08;6.75;;;2.15;;
80332;SDS011;69652;51.864;-2.246;2023-10-31T07:35:33;15.32;;;3.35;;
80332;SDS011;69652;51.864;-2.246;2023-10-31T07:37:59;8.45;;;2.72;;
80332;SDS011;69652;51.864;-2.246;2023-10-31T07:40:24;5.88;;;2.25;;
80332;SDS011;69652;51.864;-2.246;2023-10-31T07:42:50;6.13;;;2.72;;
80332;SDS011;69652;51.864;-2.246;2023-10-31T07:45:15;9.18;;;3.25;;
80332;SDS011;69652;51.864;-2.246;2023-10-31T07:47:41;4.95;;;2.40;;
80332;SDS011;69652;51.864;-2.246;2023-10-31T07:50:06;6.57;;;2.70;;
80332;SDS011;69652;51.864;-2.246;2023-10-31T07:52:32;5.75;;;1.92;;
80332;SDS011;69652;51.864;-2.246;2023-10-31T07:54:57;4.63;;;2.47;;
80332;SDS011;69652;51.864;-2.246;2023-10-31T07:57:23;9.05;;;3.13;;
80332;SDS011;69652;51.864;-2.246;2023-10-31T07:59:48;6.72;;;2.50;;
80332;SDS011;69652;51.864;-2.246;2023-10-31T08:02:13;7.85;;;2.78;;
80332;SDS011;69652;51.864;-2.246;2023-10-31T08:04:39;6.40;;;2.40;;
80332;SDS011;69652;51.864;-2.246;2023-10-31T08:07:04;5.53;;;2.00;;
80332;SDS011;69652;51.864;-2.246;2023-10-31T08:09:30;7.97;;;3.28;;
80332;SDS011;69652;51.864;-2.246;2023-10-31T08:11:55;4.53;;;1.90;;
80332;SDS011;69652;51.864;-2.246;2023-10-31T08:14:21;5.28;;;2.33;;
80332;SDS011;69652;51.864;-2.246;2023-10-31T08:16:47;5.05;;;2.75;;
80332;SDS011;69652;51.864;-2.246;2023-10-31T08:19:13;5.97;;;3.28;;
80332;SDS011;69652;51.864;-2.246;2023-10-31T08:21:39;9.70;;;3.20;;
80332;SDS011;69652;51.864;-2.246;2023-10-31T08:24:05;7.18;;;2.65;;
80332;SDS011;69652;51.864;-2.246;2023-10-31T08:26:31;6.72;;;3.20;;
80332;SDS011;69652;51.864;-2.246;2023-10-31T08:28:57;14.40;;;4.65;;
80332;SDS011;69652;51.864;-2.246;2023-10-31T08:31:22;7.93;;;3.90;;
80332;SDS011;69652;51.864;-2.246;2023-10-31T08:33:48;5.43;;;2.30;;
80332;SDS011;69652;51.864;-2.246;2023-10-31T08:36:13;6.80;;;2.95;;
80332;SDS011;69652;51.864;-2.246;2023-10-31T08:38:39;5.05;;;2.35;;
80332;SDS011;69652;51.864;-2.246;2023-10-31T08:41:04;6.75;;;2.72;;
80332;SDS011;69652;51.864;-2.246;2023-10-31T08:43:30;8.25;;;3.63;;
80332;SDS011;69652;51.864;-2.246;2023-10-31T08:45:55;7.00;;;2.75;;
80332;SDS011;69652;51.864;-2.246;2023-10-31T08:48:21;6.82;;;2.78;;
80332;SDS011;69652;51.864;-2.246;2023-10-31T08:50:46;5.40;;;2.20;;
80332;SDS011;69652;51.864;-2.246;2023-10-31T08:53:12;5.07;;;2.60;;
80332;SDS011;69652;51.864;-2.246;2023-10-31T08:55:37;6.13;;;2.97;;
80332;SDS011;69652;51.864;-2.246;2023-10-31T08:58:03;7.03;;;2.10;;
80332;SDS011;69652;51.864;-2.246;2023-10-31T09:00:28;6.05;;;2.50;;
80332;SDS011;69652;51.864;-2.246;2023-10-31T09:02:54;4.35;;;1.80;;
80332;SDS011;69652;51.864;-2.246;2023-10-31T09:05:20;3.35;;;1.40;;
80332;SDS011;69652;51.864;-2.246;2023-10-31T09:07:45;5.10;;;1.73;;
80332;SDS011;69652;51.864;-2.246;2023-10-31T09:10:11;6.55;;;1.80;;
80332;SDS011;69652;51.864;-2.246;2023-10-31T09:12:37;3.33;;;1.52;;
80332;SDS011;69652;51.864;-2.246;2023-10-31T09:15:03;7.72;;;2.45;;
80332;SDS011;69652;51.864;-2.246;2023-10-31T09:17:28;5.68;;;1.65;;
80332;SDS011;69652;51.864;-2.246;2023-10-31T09:19:54;7.15;;;1.73;;
80332;SDS011;69652;51.864;-2.246;2023-10-31T09:22:20;4.97;;;1.70;;
80332;SDS011;69652;51.864;-2.246;2023-10-31T09:24:45;3.38;;;1.48;;
80332;SDS011;69652;51.864;-2.246;2023-10-31T09:27:11;4.57;;;1.20;;
80332;SDS011;69652;51.864;-2.246;2023-10-31T09:29:36;7.00;;;1.63;;
80332;SDS011;69652;51.864;-2.246;2023-10-31T09:32:02;4.95;;;1.52;;
80332;SDS011;69652;51.864;-2.246;2023-10-31T09:34:28;6.53;;;1.85;;
80332;SDS011;69652;51.864;-2.246;2023-10-31T09:36:54;8.25;;;1.90;;
80332;SDS011;69652;51.864;-2.246;2023-10-31T09:39:19;5.72;;;1.70;;
80332;SDS011;69652;51.864;-2.246;2023-10-31T09:41:46;4.50;;;1.75;;
80332;SDS011;69652;51.864;-2.246;2023-10-31T09:44:12;9.00;;;2.38;;
80332;SDS011;69652;51.864;-2.246;2023-10-31T09:46:37;5.45;;;2.17;;
80332;SDS011;69652;51.864;-2.246;2023-10-31T09:49:05;5.70;;;1.75;;
80332;SDS011;69652;51.864;-2.246;2023-10-31T09:51:32;5.43;;;1.88;;
80332;SDS011;69652;51.864;-2.246;2023-10-31T09:53:57;5.55;;;1.92;;
80332;SDS011;69652;51.864;-2.246;2023-10-31T09:56:27;8.52;;;1.80;;
80332;SDS011;69652;51.864;-2.246;2023-10-31T09:58:59;5.43;;;1.45;;
80332;SDS011;69652;51.864;-2.246;2023-10-31T10:01:25;5.05;;;1.35;;
80332;SDS011;69652;51.864;-2.246;2023-10-31T10:03:51;6.07;;;1.63;;
80332;SDS011;69652;51.864;-2.246;2023-10-31T10:06:17;3.90;;;1.58;;
80332;SDS011;69652;51.864;-2.246;2023-10-31T10:08:46;4.45;;;1.45;;
80332;SDS011;69652;51.864;-2.246;2023-10-31T10:11:12;5.03;;;1.48;;
80332;SDS011;69652;51.864;-2.246;2023-10-31T10:13:37;7.88;;;2.13;;
80332;SDS011;69652;51.864;-2.246;2023-10-31T10:16:02;7.30;;;2.00;;
80332;SDS011;69652;51.864;-2.246;2023-10-31T10:18:29;5.47;;;2.00;;
80332;SDS011;69652;51.864;-2.246;2023-10-31T10:23:25;7.78;;;2.40;;
80332;SDS011;69652;51.864;-2.246;2023-10-31T10:25:52;4.20;;;1.70;;
80332;SDS011;69652;51.864;-2.246;2023-10-31T10:28:18;3.75;;;1.50;;
80332;SDS011;69652;51.864;-2.246;2023-10-31T10:30:48;6.68;;;2.47;;
80332;SDS011;69652;51.864;-2.246;2023-10-31T10:33:14;9.02;;;3.50;;
80332;SDS011;69652;51.864;-2.246;2023-10-31T10:35:40;4.93;;;1.67;;
80332;SDS011;69652;51.864;-2.246;2023-10-31T10:38:08;5.85;;;1.92;;
80332;SDS011;69652;51.864;-2.246;2023-10-31T10:40:45;6.32;;;2.05;;
80332;SDS011;69652;51.864;-2.246;2023-10-31T10:45:54;5.25;;;2.22;;
80332;SDS011;69652;51.864;-2.246;2023-10-31T10:48:27;7.65;;;2.20;;
80332;SDS011;69652;51.864;-2.246;2023-10-31T10:51:00;4.88;;;2.25;;
80332;SDS011;69652;51.864;-2.246;2023-10-31T10:53:37;5.93;;;2.25;;
80332;SDS011;69652;51.864;-2.246;2023-10-31T10:56:30;5.05;;;2.30;;
80332;SDS011;69652;51.864;-2.246;2023-10-31T10:59:20;6.53;;;3.08;;
80332;SDS011;69652;51.864;-2.246;2023-10-31T11:01:51;6.32;;;2.85;;
80332;SDS011;69652;51.864;-2.246;2023-10-31T11:04:18;6.82;;;3.17;;
80332;SDS011;69652;51.864;-2.246;2023-10-31T11:06:44;6.32;;;2.55;;
80332;SDS011;69652;51.864;-2.246;2023-10-31T11:09:10;4.20;;;1.52;;
80332;SDS011;69652;51.864;-2.246;2023-10-31T11:11:37;4.53;;;1.88;;
80332;SDS011;69652;51.864;-2.246;2023-10-31T11:14:04;2.90;;;1.20;;
80332;SDS011;69652;51.864;-2.246;2023-10-31T11:16:41;3.58;;;1.23;;
80332;SDS011;69652;51.864;-2.246;2023-10-31T11:19:10;3.42;;;1.30;;
80332;SDS011;69652;51.864;-2.246;2023-10-31T11:21:36;4.10;;;1.30;;
80332;SDS011;69652;51.864;-2.246;2023-10-31T11:24:02;5.90;;;1.30;;
80332;SDS011;69652;51.864;-2.246;2023-10-31T11:26:31;2.17;;;1.00;;
80332;SDS011;69652;51.864;-2.246;2023-10-31T11:29:06;5.78;;;1.40;;
80332;SDS011;69652;51.864;-2.246;2023-10-31T11:31:32;6.93;;;2.28;;
80332;SDS011;69652;51.864;-2.246;2023-10-31T11:34:00;7.18;;;2.83;;
80332;SDS011;69652;51.864;-2.246;2023-10-31T11:36:29;7.90;;;3.13;;
80332;SDS011;69652;51.864;-2.246;2023-10-31T11:41:49;9.68;;;5.20;;
80332;SDS011;69652;51.864;-2.246;2023-10-31T11:44:19;7.85;;;2.67;;
80332;SDS011;69652;51.864;-2.246;2023-10-31T11:46:49;7.72;;;3.28;;
80332;SDS011;69652;51.864;-2.246;2023-10-31T11:49:17;6.50;;;2.63;;
80332;SDS011;69652;51.864;-2.246;2023-10-31T11:51:44;6.60;;;2.28;;
80332;SDS011;69652;51.864;-2.246;2023-10-31T11:54:12;9.02;;;3.75;;
80332;SDS011;69652;51.864;-2.246;2023-10-31T11:56:39;8.55;;;3.20;;
80332;SDS011;69652;51.864;-2.246;2023-10-31T11:59:04;13.85;;;5.22;;
80332;SDS011;69652;51.864;-2.246;2023-10-31T12:01:33;11.23;;;4.47;;
80332;SDS011;69652;51.864;-2.246;2023-10-31T12:03:59;8.23;;;3.30;;
80332;SDS011;69652;51.864;-2.246;2023-10-31T12:06:25;5.50;;;1.88;;
80332;SDS011;69652;51.864;-2.246;2023-10-31T12:08:51;5.93;;;1.90;;
80332;SDS011;69652;51.864;-2.246;2023-10-31T12:11:17;8.50;;;2.20;;
80332;SDS011;69652;51.864;-2.246;2023-10-31T12:16:22;9.07;;;3.53;;
80332;SDS011;69652;51.864;-2.246;2023-10-31T12:18:57;8.95;;;4.10;;
80332;SDS011;69652;51.864;-2.246;2023-10-31T12:24:16;9.02;;;4.90;;
80332;SDS011;69652;51.864;-2.246;2023-10-31T12:26:42;8.45;;;4.22;;
80332;SDS011;69652;51.864;-2.246;2023-10-31T12:31:44;5.38;;;1.90;;
80332;SDS011;69652;51.864;-2.246;2023-10-31T12:34:13;3.50;;;1.70;;
80332;SDS011;69652;51.864;-2.246;2023-10-31T12:36:40;6.10;;;1.48;;
80332;SDS011;69652;51.864;-2.246;2023-10-31T12:39:12;2.70;;;1.20;;
80332;SDS011;69652;51.864;-2.246;2023-10-31T12:41:39;2.53;;;0.93;;
80332;SDS011;69652;51.864;-2.246;2023-10-31T12:44:06;3.38;;;1.10;;
80332;SDS011;69652;51.864;-2.246;2023-10-31T12:46:39;3.50;;;1.13;;
80332;SDS011;69652;51.864;-2.246;2023-10-31T12:49:12;4.60;;;0.98;;
80332;SDS011;69652;51.864;-2.246;2023-10-31T12:54:31;4.57;;;1.27;;
80332;SDS011;69652;51.864;-2.246;2023-10-31T12:57:03;4.13;;;1.40;;
80332;SDS011;69652;51.864;-2.246;2023-10-31T12:59:31;4.53;;;1.60;;
80332;SDS011;69652;51.864;-2.246;2023-10-31T13:01:57;4.22;;;1.02;;
80332;SDS011;69652;51.864;-2.246;2023-10-31T13:06:58;4.00;;;1.00;;
80332;SDS011;69652;51.864;-2.246;2023-10-31T13:09:30;11.57;;;5.28;;
80332;SDS011;69652;51.864;-2.246;2023-10-31T13:12:06;11.25;;;6.90;;
80332;SDS011;69652;51.864;-2.246;2023-10-31T13:14:32;5.55;;;1.90;;
80332;SDS011;69652;51.864;-2.246;2023-10-31T13:16:58;5.78;;;1.70;;
80332;SDS011;69652;51.864;-2.246;2023-10-31T13:19:24;3.47;;;0.80;;
80332;SDS011;69652;51.864;-2.246;2023-10-31T13:21:50;5.70;;;1.42;;
80332;SDS011;69652;51.864;-2.246;2023-10-31T13:24:16;2.72;;;0.50;;
80332;SDS011;69652;51.864;-2.246;2023-10-31T13:26:41;1.60;;;0.52;;
80332;SDS011;69652;51.864;-2.246;2023-10-31T13:29:08;1.73;;;0.60;;
80332;SDS011;69652;51.864;-2.246;2023-10-31T13:31:34;1.88;;;0.45;;
80332;SDS011;69652;51.864;-2.246;2023-10-31T13:33:59;2.15;;;0.55;;
80332;SDS011;69652;51.864;-2.246;2023-10-31T13:36:25;1.88;;;0.50;;
80332;SDS011;69652;51.864;-2.246;2023-10-31T13:38:50;3.80;;;0.63;;
80332;SDS011;69652;51.864;-2.246;2023-10-31T13:41:16;2.17;;;0.47;;
80332;SDS011;69652;51.864;-2.246;2023-10-31T13:43:41;1.83;;;0.50;;
80332;SDS011;69652;51.864;-2.246;2023-10-31T13:46:06;2.42;;;0.70;;
80332;SDS011;69652;51.864;-2.246;2023-10-31T13:48:32;3.45;;;0.90;;
80332;SDS011;69652;51.864;-2.246;2023-10-31T13:50:58;2.72;;;0.88;;
80332;SDS011;69652;51.864;-2.246;2023-10-31T13:53:23;1.52;;;0.50;;
80332;SDS011;69652;51.864;-2.246;2023-10-31T13:55:48;2.58;;;0.40;;
80332;SDS011;69652;51.864;-2.246;2023-10-31T13:58:14;2.47;;;0.50;;
80332;SDS011;69652;51.864;-2.246;2023-10-31T14:00:40;1.23;;;0.20;;
80332;SDS011;69652;51.864;-2.246;2023-10-31T14:03:05;2.75;;;0.47;;
80332;SDS011;69652;51.864;-2.246;2023-10-31T14:05:31;1.58;;;0.30;;
80332;SDS011;69652;51.864;-2.246;2023-10-31T14:07:56;1.58;;;0.40;;
80332;SDS011;69652;51.864;-2.246;2023-10-31T14:10:23;1.88;;;0.30;;
80332;SDS011;69652;51.864;-2.246;2023-10-31T14:12:49;1.00;;;0.25;;
80332;SDS011;69652;51.864;-2.246;2023-10-31T14:15:15;1.98;;;0.55;;
80332;SDS011;69652;51.864;-2.246;2023-10-31T14:17:41;2.80;;;0.70;;
80332;SDS011;69652;51.864;-2.246;2023-10-31T14:20:06;2.83;;;0.60;;
80332;SDS011;69652;51.864;-2.246;2023-10-31T14:22:32;4.82;;;0.98;;
80332;SDS011;69652;51.864;-2.246;2023-10-31T14:24:58;2.53;;;0.60;;
80332;SDS011;69652;51.864;-2.246;2023-10-31T14:27:23;2.92;;;0.80;;
80332;SDS011;69652;51.864;-2.246;2023-10-31T14:29:49;2.97;;;0.93;;
80332;SDS011;69652;51.864;-2.246;2023-10-31T14:32:14;4.18;;;1.00;;
80332;SDS011;69652;51.864;-2.246;2023-10-31T14:34:40;3.53;;;0.95;;
80332;SDS011;69652;51.864;-2.246;2023-10-31T14:37:05;4.45;;;1.40;;
80332;SDS011;69652;51.864;-2.246;2023-10-31T14:39:31;4.03;;;1.33;;
80332;SDS011;69652;51.864;-2.246;2023-10-31T14:41:57;5.40;;;1.60;;
80332;SDS011;69652;51.864;-2.246;2023-10-31T14:44:22;6.47;;;2.03;;
80332;SDS011;69652;51.864;-2.246;2023-10-31T14:46:48;6.38;;;2.33;;
80332;SDS011;69652;51.864;-2.246;2023-10-31T14:49:13;4.80;;;1.10;;
80332;SDS011;69652;51.864;-2.246;2023-10-31T14:51:39;2.97;;;0.95;;